sensor_id;sensor_type;location;lat;lon;timestamp;temperature;humidity
61398;DHT22;47267;48.130;-2.040;2023-02-17T00:03:49;20.50;46.60
61398;DHT22;47267;48.130;-2.040;2023-02-17T00:06:16;20.50;46.60
61398;DHT22;47267;48.130;-2.040;2023-02-17T00:08:44;20.50;46.70
61398;DHT22;47267;48.130;-2.040;2023-02-17T00:11:11;20.50;46.60
61398;DHT22;47267;48.130;-2.040;2023-02-17T00:13:37;20.50;46.60
61398;DHT22;47267;48.130;-2.040;2023-02-17T00:16:08;20.50;46.70
61398;DHT22;47267;48.130;-2.040;2023-02-17T00:18:34;20.50;46.60
61398;DHT22;47267;48.130;-2.040;2023-02-17T00:21:00;20.50;46.60
61398;DHT22;47267;48.130;-2.040;2023-02-17T00:23:34;20.50;46.70
61398;DHT22;47267;48.130;-2.040;2023-02-17T00:26:04;20.50;46.80
61398;DHT22;47267;48.130;-2.040;2023-02-17T00:28:29;20.50;46.70
61398;DHT22;47267;48.130;-2.040;2023-02-17T00:30:55;20.50;46.70
61398;DHT22;47267;48.130;-2.040;2023-02-17T00:33:21;20.40;46.70
61398;DHT22;47267;48.130;-2.040;2023-02-17T00:35:46;20.40;46.70
61398;DHT22;47267;48.130;-2.040;2023-02-17T00:38:12;20.40;46.70
61398;DHT22;47267;48.130;-2.040;2023-02-17T00:40:41;20.40;46.70
61398;DHT22;47267;48.130;-2.040;2023-02-17T00:43:07;20.40;46.70
61398;DHT22;47267;48.130;-2.040;2023-02-17T00:45:32;20.40;46.70
61398;DHT22;47267;48.130;-2.040;2023-02-17T00:47:58;20.40;46.70
61398;DHT22;47267;48.130;-2.040;2023-02-17T00:50:24;20.40;46.70
61398;DHT22;47267;48.130;-2.040;2023-02-17T00:52:49;20.40;46.70
61398;DHT22;47267;48.130;-2.040;2023-02-17T00:55:15;20.40;46.70
61398;DHT22;47267;48.130;-2.040;2023-02-17T00:57:41;20.40;46.70
61398;DHT22;47267;48.130;-2.040;2023-02-17T01:00:07;20.40;46.70
61398;DHT22;47267;48.130;-2.040;2023-02-17T01:02:33;20.40;46.70
61398;DHT22;47267;48.130;-2.040;2023-02-17T01:04:59;20.40;46.80
61398;DHT22;47267;48.130;-2.040;2023-02-17T01:07:26;20.40;46.80
61398;DHT22;47267;48.130;-2.040;2023-02-17T01:09:52;20.40;46.80
61398;DHT22;47267;48.130;-2.040;2023-02-17T01:12:17;20.40;46.80
61398;DHT22;47267;48.130;-2.040;2023-02-17T01:14:43;20.40;46.80
61398;DHT22;47267;48.130;-2.040;2023-02-17T01:17:09;20.40;46.80
61398;DHT22;47267;48.130;-2.040;2023-02-17T01:19:34;20.40;46.80
61398;DHT22;47267;48.130;-2.040;2023-02-17T01:22:00;20.40;46.80
61398;DHT22;47267;48.130;-2.040;2023-02-17T01:24:26;20.40;46.90
61398;DHT22;47267;48.130;-2.040;2023-02-17T01:26:52;20.40;47.50
61398;DHT22;47267;48.130;-2.040;2023-02-17T01:29:18;20.40;46.90
61398;DHT22;47267;48.130;-2.040;2023-02-17T01:31:43;20.40;46.90
61398;DHT22;47267;48.130;-2.040;2023-02-17T01:34:09;20.40;46.90
61398;DHT22;47267;48.130;-2.040;2023-02-17T01:36:35;20.50;47.00
61398;DHT22;47267;48.130;-2.040;2023-02-17T01:39:01;20.40;46.90
61398;DHT22;47267;48.130;-2.040;2023-02-17T01:41:27;20.50;47.00
61398;DHT22;47267;48.130;-2.040;2023-02-17T01:44:13;20.50;47.00
61398;DHT22;47267;48.130;-2.040;2023-02-17T01:46:42;20.50;47.00
61398;DHT22;47267;48.130;-2.040;2023-02-17T01:49:37;20.50;47.00
61398;DHT22;47267;48.130;-2.040;2023-02-17T01:52:07;20.50;47.00
61398;DHT22;47267;48.130;-2.040;2023-02-17T01:54:43;20.50;47.00
61398;DHT22;47267;48.130;-2.040;2023-02-17T01:57:12;20.50;47.00
61398;DHT22;47267;48.130;-2.040;2023-02-17T01:59:40;20.50;47.00
61398;DHT22;47267;48.130;-2.040;2023-02-17T02:02:06;20.50;47.00
61398;DHT22;47267;48.130;-2.040;2023-02-17T02:04:35;20.60;47.00
61398;DHT22;47267;48.130;-2.040;2023-02-17T02:07:10;20.60;47.00
61398;DHT22;47267;48.130;-2.040;2023-02-17T02:09:40;20.60;47.00
61398;DHT22;47267;48.130;-2.040;2023-02-17T02:12:28;20.60;47.00
61398;DHT22;47267;48.130;-2.040;2023-02-17T02:14:57;20.60;47.00
61398;DHT22;47267;48.130;-2.040;2023-02-17T02:35:08;20.60;47.00
61398;DHT22;47267;48.130;-2.040;2023-02-17T02:37:17;20.60;47.00
61398;DHT22;47267;48.130;-2.040;2023-02-17T02:39:47;20.60;47.00
61398;DHT22;47267;48.130;-2.040;2023-02-17T02:42:17;20.60;47.00
61398;DHT22;47267;48.130;-2.040;2023-02-17T02:44:44;20.60;47.00
61398;DHT22;47267;48.130;-2.040;2023-02-17T02:47:48;20.60;47.00
61398;DHT22;47267;48.130;-2.040;2023-02-17T02:50:44;20.60;47.00
61398;DHT22;47267;48.130;-2.040;2023-02-17T03:01:35;20.60;47.00
61398;DHT22;47267;48.130;-2.040;2023-02-17T03:09:35;20.60;47.00
61398;DHT22;47267;48.130;-2.040;2023-02-17T03:12:02;20.70;47.10
61398;DHT22;47267;48.130;-2.040;2023-02-17T03:14:30;20.60;47.00
61398;DHT22;47267;48.130;-2.040;2023-02-17T03:17:00;20.70;47.10
61398;DHT22;47267;48.130;-2.040;2023-02-17T03:19:27;20.70;47.10
61398;DHT22;47267;48.130;-2.040;2023-02-17T03:22:06;20.70;47.00
61398;DHT22;47267;48.130;-2.040;2023-02-17T03:24:34;20.70;47.00
61398;DHT22;47267;48.130;-2.040;2023-02-17T03:27:00;20.70;47.10
61398;DHT22;47267;48.130;-2.040;2023-02-17T03:29:26;20.70;47.00
61398;DHT22;47267;48.130;-2.040;2023-02-17T03:31:51;20.70;47.10
61398;DHT22;47267;48.130;-2.040;2023-02-17T03:34:17;20.70;47.10
61398;DHT22;47267;48.130;-2.040;2023-02-17T03:36:43;20.70;47.10
61398;DHT22;47267;48.130;-2.040;2023-02-17T03:39:08;20.70;47.00
61398;DHT22;47267;48.130;-2.040;2023-02-17T03:41:34;20.70;47.00
61398;DHT22;47267;48.130;-2.040;2023-02-17T03:44:00;20.70;47.10
61398;DHT22;47267;48.130;-2.040;2023-02-17T03:46:26;20.70;47.10
61398;DHT22;47267;48.130;-2.040;2023-02-17T03:48:52;20.70;47.00
61398;DHT22;47267;48.130;-2.040;2023-02-17T03:51:22;20.70;47.00
61398;DHT22;47267;48.130;-2.040;2023-02-17T03:53:48;20.70;47.10
61398;DHT22;47267;48.130;-2.040;2023-02-17T03:56:14;20.70;47.10
61398;DHT22;47267;48.130;-2.040;2023-02-17T03:58:41;20.70;47.10
61398;DHT22;47267;48.130;-2.040;2023-02-17T04:01:08;20.70;47.00
61398;DHT22;47267;48.130;-2.040;2023-02-17T04:03:35;20.70;47.10
61398;DHT22;47267;48.130;-2.040;2023-02-17T04:06:04;20.70;47.10
61398;DHT22;47267;48.130;-2.040;2023-02-17T04:08:30;20.70;47.70
61398;DHT22;47267;48.130;-2.040;2023-02-17T04:10:58;20.70;47.00
61398;DHT22;47267;48.130;-2.040;2023-02-17T04:13:25;20.80;47.10
61398;DHT22;47267;48.130;-2.040;2023-02-17T04:15:51;20.70;47.00
61398;DHT22;47267;48.130;-2.040;2023-02-17T04:18:17;20.80;47.10
61398;DHT22;47267;48.130;-2.040;2023-02-17T04:20:43;20.80;47.10
61398;DHT22;47267;48.130;-2.040;2023-02-17T04:23:10;20.80;47.10
61398;DHT22;47267;48.130;-2.040;2023-02-17T04:25:37;20.80;47.10
61398;DHT22;47267;48.130;-2.040;2023-02-17T04:28:03;20.80;47.10
61398;DHT22;47267;48.130;-2.040;2023-02-17T04:30:30;20.80;47.00
61398;DHT22;47267;48.130;-2.040;2023-02-17T04:32:56;20.80;47.10
61398;DHT22;47267;48.130;-2.040;2023-02-17T04:35:22;20.80;47.10
61398;DHT22;47267;48.130;-2.040;2023-02-17T04:37:48;20.80;47.10
61398;DHT22;47267;48.130;-2.040;2023-02-17T04:40:14;20.80;47.00
61398;DHT22;47267;48.130;-2.040;2023-02-17T04:42:40;20.80;47.00
61398;DHT22;47267;48.130;-2.040;2023-02-17T04:45:06;20.80;47.10
61398;DHT22;47267;48.130;-2.040;2023-02-17T04:47:32;20.80;47.10
61398;DHT22;47267;48.130;-2.040;2023-02-17T04:49:58;20.80;47.50
61398;DHT22;47267;48.130;-2.040;2023-02-17T04:52:24;20.80;47.00
61398;DHT22;47267;48.130;-2.040;2023-02-17T04:54:50;20.70;47.00
61398;DHT22;47267;48.130;-2.040;2023-02-17T04:57:16;20.80;47.00
61398;DHT22;47267;48.130;-2.040;2023-02-17T04:59:42;20.80;47.00
61398;DHT22;47267;48.130;-2.040;2023-02-17T05:02:07;20.80;47.00
61398;DHT22;47267;48.130;-2.040;2023-02-17T05:04:33;20.80;47.00
61398;DHT22;47267;48.130;-2.040;2023-02-17T05:06:59;20.80;47.00
61398;DHT22;47267;48.130;-2.040;2023-02-17T05:09:25;20.80;47.10
61398;DHT22;47267;48.130;-2.040;2023-02-17T05:11:50;20.80;47.00
61398;DHT22;47267;48.130;-2.040;2023-02-17T05:14:16;20.80;47.00
61398;DHT22;47267;48.130;-2.040;2023-02-17T05:16:42;20.80;47.10
61398;DHT22;47267;48.130;-2.040;2023-02-17T05:19:07;20.80;47.00
61398;DHT22;47267;48.130;-2.040;2023-02-17T05:21:33;20.80;47.00
61398;DHT22;47267;48.130;-2.040;2023-02-17T05:23:59;20.80;47.60
61398;DHT22;47267;48.130;-2.040;2023-02-17T05:26:25;20.80;47.00
61398;DHT22;47267;48.130;-2.040;2023-02-17T05:28:50;20.80;47.00
61398;DHT22;47267;48.130;-2.040;2023-02-17T05:31:16;20.80;47.00
61398;DHT22;47267;48.130;-2.040;2023-02-17T05:33:42;20.80;47.00
61398;DHT22;47267;48.130;-2.040;2023-02-17T05:36:09;20.80;47.00
61398;DHT22;47267;48.130;-2.040;2023-02-17T05:38:35;20.80;47.00
61398;DHT22;47267;48.130;-2.040;2023-02-17T05:41:01;20.80;47.00
61398;DHT22;47267;48.130;-2.040;2023-02-17T05:43:28;20.80;47.10
61398;DHT22;47267;48.130;-2.040;2023-02-17T05:45:54;20.80;47.00
61398;DHT22;47267;48.130;-2.040;2023-02-17T05:48:19;20.80;47.00
61398;DHT22;47267;48.130;-2.040;2023-02-17T05:50:45;20.80;47.00
61398;DHT22;47267;48.130;-2.040;2023-02-17T05:53:11;20.80;47.00
61398;DHT22;47267;48.130;-2.040;2023-02-17T05:55:37;20.80;47.10
61398;DHT22;47267;48.130;-2.040;2023-02-17T05:58:02;20.80;47.00
61398;DHT22;47267;48.130;-2.040;2023-02-17T06:00:28;20.80;47.10
61398;DHT22;47267;48.130;-2.040;2023-02-17T06:02:54;20.80;47.00
61398;DHT22;47267;48.130;-2.040;2023-02-17T06:05:20;20.80;47.00
61398;DHT22;47267;48.130;-2.040;2023-02-17T06:07:46;20.80;47.00
61398;DHT22;47267;48.130;-2.040;2023-02-17T06:10:12;20.80;47.00
61398;DHT22;47267;48.130;-2.040;2023-02-17T06:12:38;20.70;47.00
61398;DHT22;47267;48.130;-2.040;2023-02-17T06:15:04;20.80;47.00
61398;DHT22;47267;48.130;-2.040;2023-02-17T06:17:30;20.80;47.00
61398;DHT22;47267;48.130;-2.040;2023-02-17T06:19:55;20.80;47.10
61398;DHT22;47267;48.130;-2.040;2023-02-17T06:22:21;20.80;47.00
61398;DHT22;47267;48.130;-2.040;2023-02-17T06:24:46;20.80;47.00
61398;DHT22;47267;48.130;-2.040;2023-02-17T06:27:12;20.80;47.00
61398;DHT22;47267;48.130;-2.040;2023-02-17T06:29:38;20.80;47.00
61398;DHT22;47267;48.130;-2.040;2023-02-17T06:32:05;20.80;47.00
61398;DHT22;47267;48.130;-2.040;2023-02-17T06:34:30;20.80;47.00
61398;DHT22;47267;48.130;-2.040;2023-02-17T06:36:56;20.80;47.10
61398;DHT22;47267;48.130;-2.040;2023-02-17T06:39:22;20.80;47.00
61398;DHT22;47267;48.130;-2.040;2023-02-17T06:41:48;20.80;47.00
61398;DHT22;47267;48.130;-2.040;2023-02-17T06:44:14;20.80;47.00
61398;DHT22;47267;48.130;-2.040;2023-02-17T06:46:40;20.80;47.00
61398;DHT22;47267;48.130;-2.040;2023-02-17T06:49:06;20.80;47.00
61398;DHT22;47267;48.130;-2.040;2023-02-17T06:51:32;20.80;47.00
61398;DHT22;47267;48.130;-2.040;2023-02-17T06:53:58;20.70;47.00
61398;DHT22;47267;48.130;-2.040;2023-02-17T06:56:23;20.80;47.00
61398;DHT22;47267;48.130;-2.040;2023-02-17T06:58:50;20.80;47.00
61398;DHT22;47267;48.130;-2.040;2023-02-17T07:01:18;20.80;47.00
61398;DHT22;47267;48.130;-2.040;2023-02-17T07:03:44;20.80;47.00
61398;DHT22;47267;48.130;-2.040;2023-02-17T07:06:10;20.80;47.00
61398;DHT22;47267;48.130;-2.040;2023-02-17T07:08:36;20.80;47.00
61398;DHT22;47267;48.130;-2.040;2023-02-17T07:11:06;20.80;47.10
61398;DHT22;47267;48.130;-2.040;2023-02-17T07:13:32;20.80;47.00
61398;DHT22;47267;48.130;-2.040;2023-02-17T07:15:57;20.80;47.00
61398;DHT22;47267;48.130;-2.040;2023-02-17T07:18:23;20.80;47.00
61398;DHT22;47267;48.130;-2.040;2023-02-17T07:20:49;20.80;47.00
61398;DHT22;47267;48.130;-2.040;2023-02-17T07:23:15;20.80;47.00
61398;DHT22;47267;48.130;-2.040;2023-02-17T07:25:40;20.80;47.00
61398;DHT22;47267;48.130;-2.040;2023-02-17T07:28:06;20.80;47.10
61398;DHT22;47267;48.130;-2.040;2023-02-17T07:30:35;20.80;47.00
61398;DHT22;47267;48.130;-2.040;2023-02-17T07:33:01;20.80;47.00
61398;DHT22;47267;48.130;-2.040;2023-02-17T07:35:27;20.80;47.00
61398;DHT22;47267;48.130;-2.040;2023-02-17T07:37:52;20.80;47.00
61398;DHT22;47267;48.130;-2.040;2023-02-17T07:40:21;20.80;47.00
61398;DHT22;47267;48.130;-2.040;2023-02-17T07:42:46;20.80;47.00
61398;DHT22;47267;48.130;-2.040;2023-02-17T07:45:12;20.80;47.00
61398;DHT22;47267;48.130;-2.040;2023-02-17T07:47:37;20.80;47.00
61398;DHT22;47267;48.130;-2.040;2023-02-17T07:50:04;20.80;47.10
61398;DHT22;47267;48.130;-2.040;2023-02-17T07:52:30;20.80;47.00
61398;DHT22;47267;48.130;-2.040;2023-02-17T07:54:55;20.80;47.10
61398;DHT22;47267;48.130;-2.040;2023-02-17T07:57:21;20.80;47.10
61398;DHT22;47267;48.130;-2.040;2023-02-17T07:59:47;20.80;47.10
61398;DHT22;47267;48.130;-2.040;2023-02-17T08:02:12;20.80;47.10
61398;DHT22;47267;48.130;-2.040;2023-02-17T08:04:38;20.80;47.10
61398;DHT22;47267;48.130;-2.040;2023-02-17T08:07:04;20.80;47.10
61398;DHT22;47267;48.130;-2.040;2023-02-17T08:09:29;20.80;47.10
61398;DHT22;47267;48.130;-2.040;2023-02-17T08:12:15;20.80;47.10
61398;DHT22;47267;48.130;-2.040;2023-02-17T08:14:59;20.90;47.20
61398;DHT22;47267;48.130;-2.040;2023-02-17T08:17:27;20.80;47.20
61398;DHT22;47267;48.130;-2.040;2023-02-17T08:19:54;20.90;47.20
61398;DHT22;47267;48.130;-2.040;2023-02-17T08:22:20;20.90;47.20
61398;DHT22;47267;48.130;-2.040;2023-02-17T08:24:46;20.90;47.20
61398;DHT22;47267;48.130;-2.040;2023-02-17T08:27:13;20.90;47.20
61398;DHT22;47267;48.130;-2.040;2023-02-17T08:29:40;20.90;47.20
61398;DHT22;47267;48.130;-2.040;2023-02-17T08:32:06;20.90;47.20
61398;DHT22;47267;48.130;-2.040;2023-02-17T08:34:32;20.90;47.20
61398;DHT22;47267;48.130;-2.040;2023-02-17T08:37:01;21.00;47.30
61398;DHT22;47267;48.130;-2.040;2023-02-17T08:39:28;21.00;47.20
61398;DHT22;47267;48.130;-2.040;2023-02-17T08:41:54;21.00;47.30
61398;DHT22;47267;48.130;-2.040;2023-02-17T08:44:20;21.00;47.30
61398;DHT22;47267;48.130;-2.040;2023-02-17T08:46:47;21.00;47.30
61398;DHT22;47267;48.130;-2.040;2023-02-17T08:49:15;21.10;47.40
61398;DHT22;47267;48.130;-2.040;2023-02-17T08:51:41;21.10;47.40
61398;DHT22;47267;48.130;-2.040;2023-02-17T08:54:08;21.10;47.40
61398;DHT22;47267;48.130;-2.040;2023-02-17T08:56:36;21.10;47.40
61398;DHT22;47267;48.130;-2.040;2023-02-17T08:59:03;21.10;47.40
61398;DHT22;47267;48.130;-2.040;2023-02-17T09:01:30;21.10;47.30
61398;DHT22;47267;48.130;-2.040;2023-02-17T09:03:57;21.10;47.40
61398;DHT22;47267;48.130;-2.040;2023-02-17T09:06:30;21.10;47.40
61398;DHT22;47267;48.130;-2.040;2023-02-17T09:08:55;21.10;47.40
61398;DHT22;47267;48.130;-2.040;2023-02-17T09:11:21;21.20;47.40
61398;DHT22;47267;48.130;-2.040;2023-02-17T09:13:47;21.20;47.40
61398;DHT22;47267;48.130;-2.040;2023-02-17T09:16:13;21.10;47.40
61398;DHT22;47267;48.130;-2.040;2023-02-17T09:18:39;21.20;47.40
61398;DHT22;47267;48.130;-2.040;2023-02-17T09:21:10;21.20;47.40
61398;DHT22;47267;48.130;-2.040;2023-02-17T09:23:36;21.20;47.40
61398;DHT22;47267;48.130;-2.040;2023-02-17T09:26:03;21.20;47.60
61398;DHT22;47267;48.130;-2.040;2023-02-17T09:28:30;21.20;48.10
61398;DHT22;47267;48.130;-2.040;2023-02-17T09:30:55;21.20;47.50
61398;DHT22;47267;48.130;-2.040;2023-02-17T09:33:21;21.20;47.50
61398;DHT22;47267;48.130;-2.040;2023-02-17T09:35:47;21.20;47.50
61398;DHT22;47267;48.130;-2.040;2023-02-17T09:38:14;21.20;47.50
61398;DHT22;47267;48.130;-2.040;2023-02-17T09:43:13;21.20;47.40
61398;DHT22;47267;48.130;-2.040;2023-02-17T09:45:41;21.20;47.40
61398;DHT22;47267;48.130;-2.040;2023-02-17T09:48:10;21.20;47.50
61398;DHT22;47267;48.130;-2.040;2023-02-17T09:50:53;21.20;47.40
61398;DHT22;47267;48.130;-2.040;2023-02-17T09:53:42;21.20;47.50
61398;DHT22;47267;48.130;-2.040;2023-02-17T09:56:14;21.20;47.40
61398;DHT22;47267;48.130;-2.040;2023-02-17T09:59:05;21.20;47.40
61398;DHT22;47267;48.130;-2.040;2023-02-17T10:01:33;21.20;47.50
61398;DHT22;47267;48.130;-2.040;2023-02-17T10:04:21;21.20;47.50
61398;DHT22;47267;48.130;-2.040;2023-02-17T10:06:53;21.20;47.50
61398;DHT22;47267;48.130;-2.040;2023-02-17T10:09:31;21.20;47.50
61398;DHT22;47267;48.130;-2.040;2023-02-17T10:12:11;21.20;47.60
61398;DHT22;47267;48.130;-2.040;2023-02-17T10:14:58;21.20;47.60
61398;DHT22;47267;48.130;-2.040;2023-02-17T10:21:06;21.20;47.80
61398;DHT22;47267;48.130;-2.040;2023-02-17T10:23:36;21.20;47.70
61398;DHT22;47267;48.130;-2.040;2023-02-17T10:28:53;21.20;47.80
61398;DHT22;47267;48.130;-2.040;2023-02-17T10:34:02;21.20;47.80
61398;DHT22;47267;48.130;-2.040;2023-02-17T10:37:01;21.20;47.90
61398;DHT22;47267;48.130;-2.040;2023-02-17T10:42:02;21.20;47.80
61398;DHT22;47267;48.130;-2.040;2023-02-17T10:44:30;21.20;47.90
61398;DHT22;47267;48.130;-2.040;2023-02-17T10:46:58;21.20;47.90
61398;DHT22;47267;48.130;-2.040;2023-02-17T10:49:31;21.20;47.90
61398;DHT22;47267;48.130;-2.040;2023-02-17T10:52:44;21.20;47.90
61398;DHT22;47267;48.130;-2.040;2023-02-17T10:57:34;21.20;47.90
61398;DHT22;47267;48.130;-2.040;2023-02-17T11:00:04;21.20;47.90
61398;DHT22;47267;48.130;-2.040;2023-02-17T11:02:40;21.20;47.90
61398;DHT22;47267;48.130;-2.040;2023-02-17T11:05:07;21.20;47.90
61398;DHT22;47267;48.130;-2.040;2023-02-17T11:07:40;21.20;47.90
61398;DHT22;47267;48.130;-2.040;2023-02-17T11:10:37;21.20;48.00
61398;DHT22;47267;48.130;-2.040;2023-02-17T11:13:37;21.20;48.00
61398;DHT22;47267;48.130;-2.040;2023-02-17T11:16:05;21.20;48.20
61398;DHT22;47267;48.130;-2.040;2023-02-17T11:18:33;21.20;48.10
61398;DHT22;47267;48.130;-2.040;2023-02-17T11:21:05;21.20;48.10
61398;DHT22;47267;48.130;-2.040;2023-02-17T11:23:31;21.20;48.20
61398;DHT22;47267;48.130;-2.040;2023-02-17T11:26:21;21.20;48.20
61398;DHT22;47267;48.130;-2.040;2023-02-17T11:28:47;21.20;48.20
61398;DHT22;47267;48.130;-2.040;2023-02-17T11:31:27;21.20;48.20
61398;DHT22;47267;48.130;-2.040;2023-02-17T11:33:54;21.20;48.10
61398;DHT22;47267;48.130;-2.040;2023-02-17T11:36:29;21.20;48.20
61398;DHT22;47267;48.130;-2.040;2023-02-17T11:38:55;21.20;48.20
61398;DHT22;47267;48.130;-2.040;2023-02-17T11:41:22;21.20;48.10
61398;DHT22;47267;48.130;-2.040;2023-02-17T11:43:56;21.20;48.20
61398;DHT22;47267;48.130;-2.040;2023-02-17T11:46:45;21.20;48.20
61398;DHT22;47267;48.130;-2.040;2023-02-17T11:52:10;21.20;48.20
61398;DHT22;47267;48.130;-2.040;2023-02-17T11:57:58;21.20;48.10
61398;DHT22;47267;48.130;-2.040;2023-02-17T12:00:31;21.20;48.20
61398;DHT22;47267;48.130;-2.040;2023-02-17T12:03:16;21.20;48.20
61398;DHT22;47267;48.130;-2.040;2023-02-17T12:06:04;21.20;48.10
61398;DHT22;47267;48.130;-2.040;2023-02-17T12:11:31;21.20;48.10
61398;DHT22;47267;48.130;-2.040;2023-02-17T12:14:33;21.20;48.20
61398;DHT22;47267;48.130;-2.040;2023-02-17T12:17:18;21.20;48.20
61398;DHT22;47267;48.130;-2.040;2023-02-17T12:23:03;21.20;48.20
61398;DHT22;47267;48.130;-2.040;2023-02-17T12:25:38;21.20;48.20
61398;DHT22;47267;48.130;-2.040;2023-02-17T12:36:40;21.10;48.20
61398;DHT22;47267;48.130;-2.040;2023-02-17T12:39:24;21.10;48.30
61398;DHT22;47267;48.130;-2.040;2023-02-17T12:44:31;21.10;48.20
61398;DHT22;47267;48.130;-2.040;2023-02-17T12:47:26;21.10;48.20
61398;DHT22;47267;48.130;-2.040;2023-02-17T12:50:05;21.10;48.20
61398;DHT22;47267;48.130;-2.040;2023-02-17T12:52:39;21.10;48.30
61398;DHT22;47267;48.130;-2.040;2023-02-17T12:55:20;21.10;48.30
61398;DHT22;47267;48.130;-2.040;2023-02-17T12:57:56;21.10;48.30
61398;DHT22;47267;48.130;-2.040;2023-02-17T13:00:31;21.10;48.30
61398;DHT22;47267;48.130;-2.040;2023-02-17T13:02:59;21.10;48.30
61398;DHT22;47267;48.130;-2.040;2023-02-17T13:05:43;21.10;48.30
61398;DHT22;47267;48.130;-2.040;2023-02-17T13:09:05;21.10;48.30
61398;DHT22;47267;48.130;-2.040;2023-02-17T13:11:12;21.10;48.30
61398;DHT22;47267;48.130;-2.040;2023-02-17T13:13:39;21.10;48.30
61398;DHT22;47267;48.130;-2.040;2023-02-17T13:16:10;21.10;48.30
61398;DHT22;47267;48.130;-2.040;2023-02-17T13:18:39;21.00;48.30
61398;DHT22;47267;48.130;-2.040;2023-02-17T13:24:01;21.00;48.30
61398;DHT22;47267;48.130;-2.040;2023-02-17T13:26:30;21.00;48.30
61398;DHT22;47267;48.130;-2.040;2023-02-17T13:31:55;21.00;48.40
61398;DHT22;47267;48.130;-2.040;2023-02-17T13:36:49;21.00;48.40
61398;DHT22;47267;48.130;-2.040;2023-02-17T13:41:56;21.00;48.40
61398;DHT22;47267;48.130;-2.040;2023-02-17T13:44:29;21.00;48.40
61398;DHT22;47267;48.130;-2.040;2023-02-17T13:47:00;21.00;48.40
61398;DHT22;47267;48.130;-2.040;2023-02-17T13:49:29;21.00;48.30
61398;DHT22;47267;48.130;-2.040;2023-02-17T13:52:16;21.00;48.40
61398;DHT22;47267;48.130;-2.040;2023-02-17T13:54:53;21.00;48.40
61398;DHT22;47267;48.130;-2.040;2023-02-17T13:57:27;21.00;48.40
61398;DHT22;47267;48.130;-2.040;2023-02-17T14:00:20;21.00;48.40
61398;DHT22;47267;48.130;-2.040;2023-02-17T14:02:57;21.00;48.40
61398;DHT22;47267;48.130;-2.040;2023-02-17T14:08:03;21.00;48.40
61398;DHT22;47267;48.130;-2.040;2023-02-17T14:10:30;21.00;48.40
61398;DHT22;47267;48.130;-2.040;2023-02-17T14:12:56;21.00;48.40
61398;DHT22;47267;48.130;-2.040;2023-02-17T14:15:25;21.00;48.40
61398;DHT22;47267;48.130;-2.040;2023-02-17T14:17:52;21.00;48.40
61398;DHT22;47267;48.130;-2.040;2023-02-17T14:20:32;21.00;48.40
61398;DHT22;47267;48.130;-2.040;2023-02-17T14:23:10;21.00;48.40
61398;DHT22;47267;48.130;-2.040;2023-02-17T14:25:39;21.00;48.40
61398;DHT22;47267;48.130;-2.040;2023-02-17T14:28:18;21.10;48.40
61398;DHT22;47267;48.130;-2.040;2023-02-17T14:30:43;21.10;48.40
61398;DHT22;47267;48.130;-2.040;2023-02-17T14:35:52;21.10;49.00
61398;DHT22;47267;48.130;-2.040;2023-02-17T14:38:30;21.10;48.70
61398;DHT22;47267;48.130;-2.040;2023-02-17T14:40:57;21.10;48.60
61398;DHT22;47267;48.130;-2.040;2023-02-17T14:43:23;21.00;48.60
61398;DHT22;47267;48.130;-2.040;2023-02-17T14:45:49;21.10;48.80
61398;DHT22;47267;48.130;-2.040;2023-02-17T14:48:15;21.10;48.70
61398;DHT22;47267;48.130;-2.040;2023-02-17T14:50:41;21.10;48.70
61398;DHT22;47267;48.130;-2.040;2023-02-17T14:53:22;21.10;48.60
61398;DHT22;47267;48.130;-2.040;2023-02-17T14:55:51;21.10;48.70
61398;DHT22;47267;48.130;-2.040;2023-02-17T14:58:20;21.10;48.60
61398;DHT22;47267;48.130;-2.040;2023-02-17T15:00:47;21.10;48.70
61398;DHT22;47267;48.130;-2.040;2023-02-17T15:03:13;21.10;48.70
61398;DHT22;47267;48.130;-2.040;2023-02-17T15:05:39;21.10;48.70
61398;DHT22;47267;48.130;-2.040;2023-02-17T15:08:07;21.10;48.70
61398;DHT22;47267;48.130;-2.040;2023-02-17T15:10:34;21.10;48.70
61398;DHT22;47267;48.130;-2.040;2023-02-17T15:13:02;21.10;48.70
61398;DHT22;47267;48.130;-2.040;2023-02-17T15:15:31;21.10;48.70
61398;DHT22;47267;48.130;-2.040;2023-02-17T15:17:57;21.10;48.70
61398;DHT22;47267;48.130;-2.040;2023-02-17T15:20:23;21.10;48.70
61398;DHT22;47267;48.130;-2.040;2023-02-17T15:22:49;21.10;48.60
61398;DHT22;47267;48.130;-2.040;2023-02-17T15:25:20;21.10;48.70
61398;DHT22;47267;48.130;-2.040;2023-02-17T15:27:49;21.10;48.70
61398;DHT22;47267;48.130;-2.040;2023-02-17T15:30:17;21.10;48.60
61398;DHT22;47267;48.130;-2.040;2023-02-17T15:32:44;21.10;48.60
61398;DHT22;47267;48.130;-2.040;2023-02-17T15:37:38;21.10;48.60
61398;DHT22;47267;48.130;-2.040;2023-02-17T15:40:04;21.20;48.70
61398;DHT22;47267;48.130;-2.040;2023-02-17T15:42:30;21.20;48.80
61398;DHT22;47267;48.130;-2.040;2023-02-17T15:44:57;21.10;48.70
61398;DHT22;47267;48.130;-2.040;2023-02-17T15:47:25;21.10;48.70
61398;DHT22;47267;48.130;-2.040;2023-02-17T15:49:51;21.20;48.80
61398;DHT22;47267;48.130;-2.040;2023-02-17T15:52:17;21.10;48.70
61398;DHT22;47267;48.130;-2.040;2023-02-17T15:54:43;21.20;48.80
61398;DHT22;47267;48.130;-2.040;2023-02-17T15:57:23;21.20;48.80
61398;DHT22;47267;48.130;-2.040;2023-02-17T15:59:50;21.20;48.80
61398;DHT22;47267;48.130;-2.040;2023-02-17T16:02:21;21.20;49.00
61398;DHT22;47267;48.130;-2.040;2023-02-17T16:04:48;21.20;49.00
61398;DHT22;47267;48.130;-2.040;2023-02-17T16:07:13;21.20;48.80
61398;DHT22;47267;48.130;-2.040;2023-02-17T16:09:39;21.20;48.80
61398;DHT22;47267;48.130;-2.040;2023-02-17T16:12:14;21.10;48.80
61398;DHT22;47267;48.130;-2.040;2023-02-17T16:14:43;21.20;48.80
61398;DHT22;47267;48.130;-2.040;2023-02-17T16:17:14;21.20;48.80
61398;DHT22;47267;48.130;-2.040;2023-02-17T16:19:40;21.20;48.80
61398;DHT22;47267;48.130;-2.040;2023-02-17T16:22:06;21.20;48.80
61398;DHT22;47267;48.130;-2.040;2023-02-17T16:24:32;21.20;48.90
61398;DHT22;47267;48.130;-2.040;2023-02-17T16:26:58;21.20;48.80
61398;DHT22;47267;48.130;-2.040;2023-02-17T16:29:24;21.20;48.90
61398;DHT22;47267;48.130;-2.040;2023-02-17T16:31:50;21.20;49.00
61398;DHT22;47267;48.130;-2.040;2023-02-17T16:34:20;21.20;48.90
61398;DHT22;47267;48.130;-2.040;2023-02-17T16:36:52;21.20;48.90
61398;DHT22;47267;48.130;-2.040;2023-02-17T16:39:19;21.20;48.90
61398;DHT22;47267;48.130;-2.040;2023-02-17T16:41:46;21.20;48.90
61398;DHT22;47267;48.130;-2.040;2023-02-17T16:44:13;21.20;49.00
61398;DHT22;47267;48.130;-2.040;2023-02-17T16:47:02;21.20;48.90
61398;DHT22;47267;48.130;-2.040;2023-02-17T16:49:32;21.20;49.00
61398;DHT22;47267;48.130;-2.040;2023-02-17T16:52:03;21.20;49.00
61398;DHT22;47267;48.130;-2.040;2023-02-17T16:54:29;21.20;49.00
61398;DHT22;47267;48.130;-2.040;2023-02-17T16:56:56;21.20;49.00
61398;DHT22;47267;48.130;-2.040;2023-02-17T16:59:24;21.20;49.00
61398;DHT22;47267;48.130;-2.040;2023-02-17T17:01:51;21.20;49.10